sensor_id;sensor_type;location;lat;lon;timestamp;pressure;altitude;pressure_sealevel;temperature;humidity
25526;BME280;13424;48.424;11.258;2023-04-03T00:01:07;96173.88;;;6.29;67.55
25526;BME280;13424;48.424;11.258;2023-04-03T00:03:33;96170.97;;;6.11;67.47
25526;BME280;13424;48.424;11.258;2023-04-03T00:05:59;96163.06;;;5.83;68.76
25526;BME280;13424;48.424;11.258;2023-04-03T00:08:25;96170.06;;;5.91;67.80
25526;BME280;13424;48.424;11.258;2023-04-03T00:10:54;96166.91;;;6.15;66.70
25526;BME280;13424;48.424;11.258;2023-04-03T00:13:20;96164.88;;;6.17;67.54
25526;BME280;13424;48.424;11.258;2023-04-03T00:15:45;96167.09;;;5.72;67.66
25526;BME280;13424;48.424;11.258;2023-04-03T00:18:11;96166.47;;;6.05;66.94
25526;BME280;13424;48.424;11.258;2023-04-03T00:20:37;96165.13;;;5.87;67.97
25526;BME280;13424;48.424;11.258;2023-04-03T00:23:03;96163.06;;;6.18;66.31
25526;BME280;13424;48.424;11.258;2023-04-03T00:25:29;96163.91;;;6.31;66.37
25526;BME280;13424;48.424;11.258;2023-04-03T00:27:54;96167.38;;;6.38;67.37
25526;BME280;13424;48.424;11.258;2023-04-03T00:30:21;96174.78;;;6.50;66.48
25526;BME280;13424;48.424;11.258;2023-04-03T00:32:52;96169.88;;;6.40;66.52
25526;BME280;13424;48.424;11.258;2023-04-03T00:35:19;96158.41;;;6.39;66.10
25526;BME280;13424;48.424;11.258;2023-04-03T00:37:46;96152.75;;;6.42;67.18
25526;BME280;13424;48.424;11.258;2023-04-03T00:40:14;96160.09;;;6.40;67.94
25526;BME280;13424;48.424;11.258;2023-04-03T00:42:42;96157.34;;;6.21;68.81
25526;BME280;13424;48.424;11.258;2023-04-03T00:47:55;96158.53;;;5.70;68.45
25526;BME280;13424;48.424;11.258;2023-04-03T00:50:21;96155.69;;;6.13;67.99
25526;BME280;13424;48.424;11.258;2023-04-03T00:52:47;96159.59;;;6.17;67.56
25526;BME280;13424;48.424;11.258;2023-04-03T00:55:15;96166.34;;;6.26;66.56
25526;BME280;13424;48.424;11.258;2023-04-03T00:57:41;96162.41;;;6.15;66.02
25526;BME280;13424;48.424;11.258;2023-04-03T01:00:11;96157.91;;;6.03;66.48
25526;BME280;13424;48.424;11.258;2023-04-03T01:02:38;96164.59;;;5.99;67.01
25526;BME280;13424;48.424;11.258;2023-04-03T01:05:08;96167.56;;;5.89;68.14
25526;BME280;13424;48.424;11.258;2023-04-03T01:07:34;96163.91;;;5.90;66.63
25526;BME280;13424;48.424;11.258;2023-04-03T01:10:06;96163.63;;;6.13;66.02
25526;BME280;13424;48.424;11.258;2023-04-03T01:12:38;96164.38;;;5.94;67.15
25526;BME280;13424;48.424;11.258;2023-04-03T01:15:10;96156.22;;;5.95;67.50
25526;BME280;13424;48.424;11.258;2023-04-03T01:17:58;96163.03;;;6.11;65.92
25526;BME280;13424;48.424;11.258;2023-04-03T01:25:53;96163.25;;;5.81;66.59
25526;BME280;13424;48.424;11.258;2023-04-03T01:28:29;96168.31;;;5.70;67.69
25526;BME280;13424;48.424;11.258;2023-04-03T01:31:13;96164.78;;;5.97;67.21
25526;BME280;13424;48.424;11.258;2023-04-03T01:33:42;96161.59;;;6.15;66.17
25526;BME280;13424;48.424;11.258;2023-04-03T01:36:10;96168.78;;;6.28;67.08
25526;BME280;13424;48.424;11.258;2023-04-03T01:38:38;96174.25;;;5.78;67.76
25526;BME280;13424;48.424;11.258;2023-04-03T01:41:04;96176.34;;;6.24;66.34
25526;BME280;13424;48.424;11.258;2023-04-03T01:43:30;96176.66;;;6.08;64.61
25526;BME280;13424;48.424;11.258;2023-04-03T01:45:56;96175.91;;;6.21;65.87
25526;BME280;13424;48.424;11.258;2023-04-03T01:48:22;96174.97;;;6.00;66.57
25526;BME280;13424;48.424;11.258;2023-04-03T01:50:47;96173.81;;;6.16;66.34
25526;BME280;13424;48.424;11.258;2023-04-03T01:53:13;96169.16;;;5.83;67.95
25526;BME280;13424;48.424;11.258;2023-04-03T01:55:39;96165.09;;;5.81;68.26
25526;BME280;13424;48.424;11.258;2023-04-03T01:58:05;96162.78;;;6.06;66.26
25526;BME280;13424;48.424;11.258;2023-04-03T02:00:31;96172.19;;;6.08;66.07
25526;BME280;13424;48.424;11.258;2023-04-03T02:02:59;96170.63;;;6.27;65.61
25526;BME280;13424;48.424;11.258;2023-04-03T02:05:25;96164.13;;;6.36;65.54
25526;BME280;13424;48.424;11.258;2023-04-03T02:07:51;96168.31;;;5.76;67.80
25526;BME280;13424;48.424;11.258;2023-04-03T02:10:17;96164.03;;;6.10;66.49
25526;BME280;13424;48.424;11.258;2023-04-03T02:12:43;96163.41;;;6.08;67.16
25526;BME280;13424;48.424;11.258;2023-04-03T02:15:09;96169.19;;;5.90;66.60
25526;BME280;13424;48.424;11.258;2023-04-03T02:17:35;96159.97;;;5.45;67.85
25526;BME280;13424;48.424;11.258;2023-04-03T02:20:01;96169.03;;;5.57;68.25
25526;BME280;13424;48.424;11.258;2023-04-03T02:22:27;96163.09;;;5.89;67.52
25526;BME280;13424;48.424;11.258;2023-04-03T02:24:53;96158.56;;;5.83;67.53
25526;BME280;13424;48.424;11.258;2023-04-03T02:27:20;96154.97;;;5.28;66.79
25526;BME280;13424;48.424;11.258;2023-04-03T02:29:45;96156.16;;;5.88;66.71
25526;BME280;13424;48.424;11.258;2023-04-03T02:32:11;96158.63;;;5.90;66.82
25526;BME280;13424;48.424;11.258;2023-04-03T02:34:38;96152.19;;;6.06;66.34
25526;BME280;13424;48.424;11.258;2023-04-03T02:37:04;96146.53;;;6.09;66.93
25526;BME280;13424;48.424;11.258;2023-04-03T02:43:38;96156.66;;;5.64;67.98
25526;BME280;13424;48.424;11.258;2023-04-03T02:46:05;96153.84;;;5.72;66.30
25526;BME280;13424;48.424;11.258;2023-04-03T02:48:32;96159.56;;;5.76;67.46
25526;BME280;13424;48.424;11.258;2023-04-03T02:50:57;96157.16;;;5.46;68.38
25526;BME280;13424;48.424;11.258;2023-04-03T02:53:23;96156.84;;;5.63;68.16
25526;BME280;13424;48.424;11.258;2023-04-03T02:55:50;96146.22;;;5.21;68.00
25526;BME280;13424;48.424;11.258;2023-04-03T02:58:16;96159.75;;;5.40;68.90
25526;BME280;13424;48.424;11.258;2023-04-03T03:00:42;96162.19;;;5.13;69.96
25526;BME280;13424;48.424;11.258;2023-04-03T03:03:07;96156.66;;;5.29;69.70
25526;BME280;13424;48.424;11.258;2023-04-03T03:05:34;96159.91;;;4.61;71.36
25526;BME280;13424;48.424;11.258;2023-04-03T03:08:00;96160.19;;;5.43;69.58
25526;BME280;13424;48.424;11.258;2023-04-03T03:10:26;96163.41;;;5.73;68.11
25526;BME280;13424;48.424;11.258;2023-04-03T03:12:52;96157.97;;;5.81;67.88
25526;BME280;13424;48.424;11.258;2023-04-03T03:15:18;96163.88;;;5.83;67.47
25526;BME280;13424;48.424;11.258;2023-04-03T03:17:44;96164.03;;;5.41;68.80
25526;BME280;13424;48.424;11.258;2023-04-03T03:20:12;96160.13;;;4.59;71.71
25526;BME280;13424;48.424;11.258;2023-04-03T03:22:39;96166.25;;;5.09;69.21
25526;BME280;13424;48.424;11.258;2023-04-03T03:25:05;96160.06;;;5.58;68.33
25526;BME280;13424;48.424;11.258;2023-04-03T03:27:31;96152.72;;;4.97;69.83
25526;BME280;13424;48.424;11.258;2023-04-03T03:29:57;96158.19;;;5.52;69.05
25526;BME280;13424;48.424;11.258;2023-04-03T03:32:23;96157.72;;;5.42;68.65
25526;BME280;13424;48.424;11.258;2023-04-03T03:34:49;96154.16;;;5.56;68.50
25526;BME280;13424;48.424;11.258;2023-04-03T03:37:15;96154.41;;;5.61;67.85
25526;BME280;13424;48.424;11.258;2023-04-03T03:39:40;96159.22;;;5.51;68.25
25526;BME280;13424;48.424;11.258;2023-04-03T03:42:06;96156.50;;;5.72;68.15
25526;BME280;13424;48.424;11.258;2023-04-03T03:44:32;96148.63;;;5.51;68.09
25526;BME280;13424;48.424;11.258;2023-04-03T03:46:58;96159.25;;;5.01;69.73
25526;BME280;13424;48.424;11.258;2023-04-03T03:50:17;96157.59;;;5.22;69.38
25526;BME280;13424;48.424;11.258;2023-04-03T03:52:44;96161.06;;;5.22;69.92
25526;BME280;13424;48.424;11.258;2023-04-03T03:55:11;96159.03;;;5.24;70.17
25526;BME280;13424;48.424;11.258;2023-04-03T03:57:37;96159.56;;;5.41;69.25
25526;BME280;13424;48.424;11.258;2023-04-03T04:00:05;96162.00;;;5.43;69.11
25526;BME280;13424;48.424;11.258;2023-04-03T04:02:41;96169.72;;;5.72;67.90
25526;BME280;13424;48.424;11.258;2023-04-03T04:05:09;96158.91;;;5.32;69.01
25526;BME280;13424;48.424;11.258;2023-04-03T04:07:36;96163.78;;;5.36;68.95
25526;BME280;13424;48.424;11.258;2023-04-03T04:10:03;96159.56;;;5.41;69.19
25526;BME280;13424;48.424;11.258;2023-04-03T04:12:30;96168.66;;;5.67;68.42
25526;BME280;13424;48.424;11.258;2023-04-03T04:14:55;96164.91;;;5.48;68.99
25526;BME280;13424;48.424;11.258;2023-04-03T04:17:21;96170.09;;;5.35;69.04
25526;BME280;13424;48.424;11.258;2023-04-03T04:19:48;96163.97;;;5.62;68.54
25526;BME280;13424;48.424;11.258;2023-04-03T04:22:14;96160.47;;;5.55;68.40
25526;BME280;13424;48.424;11.258;2023-04-03T04:24:40;96166.44;;;5.64;68.63
25526;BME280;13424;48.424;11.258;2023-04-03T04:27:07;96164.69;;;5.77;67.73
25526;BME280;13424;48.424;11.258;2023-04-03T04:29:34;96164.59;;;5.36;69.34
25526;BME280;13424;48.424;11.258;2023-04-03T04:32:03;96166.69;;;5.75;68.46
25526;BME280;13424;48.424;11.258;2023-04-03T04:34:30;96173.16;;;5.66;68.76
25526;BME280;13424;48.424;11.258;2023-04-03T04:36:57;96175.47;;;5.48;69.87
25526;BME280;13424;48.424;11.258;2023-04-03T04:39:24;96175.34;;;5.56;69.78
25526;BME280;13424;48.424;11.258;2023-04-03T04:41:50;96175.19;;;5.64;69.58
25526;BME280;13424;48.424;11.258;2023-04-03T04:44:16;96180.28;;;5.66;69.84
25526;BME280;13424;48.424;11.258;2023-04-03T04:46:42;96179.16;;;5.47;69.10
25526;BME280;13424;48.424;11.258;2023-04-03T04:49:08;96173.50;;;5.28;69.53
25526;BME280;13424;48.424;11.258;2023-04-03T04:51:34;96182.06;;;5.58;70.24
25526;BME280;13424;48.424;11.258;2023-04-03T04:54:00;96180.25;;;5.31;69.74
25526;BME280;13424;48.424;11.258;2023-04-03T04:56:26;96184.63;;;5.80;68.35
25526;BME280;13424;48.424;11.258;2023-04-03T04:59:02;96184.19;;;5.70;69.25
25526;BME280;13424;48.424;11.258;2023-04-03T05:01:28;96190.69;;;5.39;70.09
25526;BME280;13424;48.424;11.258;2023-04-03T05:04:01;96180.00;;;5.54;69.56
25526;BME280;13424;48.424;11.258;2023-04-03T05:06:27;96185.75;;;5.64;69.27
25526;BME280;13424;48.424;11.258;2023-04-03T05:08:55;96190.63;;;5.60;69.23
25526;BME280;13424;48.424;11.258;2023-04-03T05:11:22;96190.53;;;5.19;70.36
25526;BME280;13424;48.424;11.258;2023-04-03T05:13:50;96195.63;;;5.77;69.25
25526;BME280;13424;48.424;11.258;2023-04-03T05:16:16;96192.69;;;5.65;69.65
25526;BME280;13424;48.424;11.258;2023-04-03T05:18:42;96195.06;;;5.53;69.35
25526;BME280;13424;48.424;11.258;2023-04-03T05:21:15;96191.78;;;5.51;69.33
25526;BME280;13424;48.424;11.258;2023-04-03T05:23:42;96196.03;;;5.46;69.60
25526;BME280;13424;48.424;11.258;2023-04-03T05:26:08;96194.41;;;5.79;69.65
25526;BME280;13424;48.424;11.258;2023-04-03T05:28:35;96198.72;;;5.87;69.20
25526;BME280;13424;48.424;11.258;2023-04-03T05:31:02;96203.09;;;5.39;70.61
25526;BME280;13424;48.424;11.258;2023-04-03T05:33:33;96202.25;;;5.94;68.49
25526;BME280;13424;48.424;11.258;2023-04-03T05:36:06;96199.09;;;5.49;71.41
25526;BME280;13424;48.424;11.258;2023-04-03T05:38:36;96211.16;;;5.86;69.31
25526;BME280;13424;48.424;11.258;2023-04-03T05:41:02;96204.09;;;5.94;69.49
25526;BME280;13424;48.424;11.258;2023-04-03T05:43:28;96212.91;;;6.01;69.00
25526;BME280;13424;48.424;11.258;2023-04-03T05:45:55;96211.44;;;6.46;68.01
25526;BME280;13424;48.424;11.258;2023-04-03T05:48:23;96206.78;;;6.07;68.63
25526;BME280;13424;48.424;11.258;2023-04-03T05:54:31;96211.13;;;5.80;69.25
25526;BME280;13424;48.424;11.258;2023-04-03T05:57:07;96208.09;;;6.18;68.06
25526;BME280;13424;48.424;11.258;2023-04-03T05:59:33;96207.03;;;5.84;69.87
25526;BME280;13424;48.424;11.258;2023-04-03T06:02:00;96211.44;;;6.46;67.08
25526;BME280;13424;48.424;11.258;2023-04-03T06:04:26;96205.72;;;5.67;67.93
25526;BME280;13424;48.424;11.258;2023-04-03T06:06:56;96218.25;;;6.14;67.82
25526;BME280;13424;48.424;11.258;2023-04-03T06:09:25;96222.09;;;5.77;68.17
25526;BME280;13424;48.424;11.258;2023-04-03T06:11:52;96208.31;;;6.29;67.05
25526;BME280;13424;48.424;11.258;2023-04-03T06:14:20;96219.16;;;6.34;67.53
25526;BME280;13424;48.424;11.258;2023-04-03T06:16:46;96219.66;;;6.58;67.45
25526;BME280;13424;48.424;11.258;2023-04-03T06:19:13;96217.19;;;6.63;66.54
25526;BME280;13424;48.424;11.258;2023-04-03T06:21:45;96218.56;;;5.98;68.25
25526;BME280;13424;48.424;11.258;2023-04-03T06:24:16;96222.34;;;6.17;67.65
25526;BME280;13424;48.424;11.258;2023-04-03T06:26:42;96219.34;;;6.26;68.73
25526;BME280;13424;48.424;11.258;2023-04-03T06:29:08;96229.00;;;6.06;69.43
25526;BME280;13424;48.424;11.258;2023-04-03T06:31:34;96217.56;;;6.40;67.90
25526;BME280;13424;48.424;11.258;2023-04-03T06:34:03;96234.72;;;6.51;67.29
25526;BME280;13424;48.424;11.258;2023-04-03T06:36:29;96228.78;;;6.55;65.86
25526;BME280;13424;48.424;11.258;2023-04-03T06:38:55;96221.91;;;6.13;67.51
25526;BME280;13424;48.424;11.258;2023-04-03T06:41:21;96222.84;;;6.40;67.10
25526;BME280;13424;48.424;11.258;2023-04-03T06:43:47;96223.91;;;5.76;68.22
25526;BME280;13424;48.424;11.258;2023-04-03T06:46:21;96229.41;;;6.51;68.13
25526;BME280;13424;48.424;11.258;2023-04-03T06:48:48;96226.19;;;6.62;66.63
25526;BME280;13424;48.424;11.258;2023-04-03T06:51:24;96226.53;;;6.46;68.34
25526;BME280;13424;48.424;11.258;2023-04-03T06:53:52;96225.81;;;6.78;66.18
25526;BME280;13424;48.424;11.258;2023-04-03T06:56:18;96226.19;;;6.68;65.85
25526;BME280;13424;48.424;11.258;2023-04-03T06:58:45;96229.72;;;6.82;66.23
25526;BME280;13424;48.424;11.258;2023-04-03T07:01:14;96240.53;;;6.87;65.70
25526;BME280;13424;48.424;11.258;2023-04-03T07:03:42;96229.56;;;7.23;65.84
25526;BME280;13424;48.424;11.258;2023-04-03T07:06:11;96229.09;;;6.80;65.62
25526;BME280;13424;48.424;11.258;2023-04-03T07:08:37;96233.13;;;6.56;67.20
25526;BME280;13424;48.424;11.258;2023-04-03T07:11:03;96239.16;;;6.43;66.94
25526;BME280;13424;48.424;11.258;2023-04-03T07:13:29;96250.28;;;6.74;66.05
25526;BME280;13424;48.424;11.258;2023-04-03T07:15:55;96242.34;;;6.74;66.81
25526;BME280;13424;48.424;11.258;2023-04-03T07:18:22;96254.75;;;6.66;66.12
25526;BME280;13424;48.424;11.258;2023-04-03T07:20:48;96252.69;;;6.62;65.61
25526;BME280;13424;48.424;11.258;2023-04-03T07:23:13;96259.44;;;6.71;64.82
25526;BME280;13424;48.424;11.258;2023-04-03T07:25:44;96249.84;;;6.57;65.29
25526;BME280;13424;48.424;11.258;2023-04-03T07:28:49;96255.69;;;7.26;63.59
25526;BME280;13424;48.424;11.258;2023-04-03T07:31:16;96259.78;;;7.29;64.10
25526;BME280;13424;48.424;11.258;2023-04-03T07:33:44;96261.38;;;7.04;66.04
25526;BME280;13424;48.424;11.258;2023-04-03T07:36:21;96259.78;;;7.22;65.49
25526;BME280;13424;48.424;11.258;2023-04-03T07:38:47;96264.91;;;7.90;64.43
25526;BME280;13424;48.424;11.258;2023-04-03T07:41:19;96266.31;;;7.73;62.78
25526;BME280;13424;48.424;11.258;2023-04-03T07:43:48;96269.78;;;7.20;64.35
25526;BME280;13424;48.424;11.258;2023-04-03T07:46:15;96268.34;;;7.24;63.47
25526;BME280;13424;48.424;11.258;2023-04-03T07:48:43;96271.00;;;7.57;64.05
25526;BME280;13424;48.424;11.258;2023-04-03T07:51:09;96271.44;;;7.28;65.21
25526;BME280;13424;48.424;11.258;2023-04-03T07:53:36;96280.81;;;7.57;63.25
25526;BME280;13424;48.424;11.258;2023-04-03T07:56:02;96279.59;;;7.20;63.17
25526;BME280;13424;48.424;11.258;2023-04-03T07:58:28;96272.41;;;7.14;64.30
25526;BME280;13424;48.424;11.258;2023-04-03T08:04:33;96283.81;;;7.08;64.45
25526;BME280;13424;48.424;11.258;2023-04-03T08:06:59;96282.66;;;7.37;64.06
25526;BME280;13424;48.424;11.258;2023-04-03T08:09:24;96279.78;;;6.51;66.79
25526;BME280;13424;48.424;11.258;2023-04-03T08:11:51;96286.34;;;7.75;62.47
25526;BME280;13424;48.424;11.258;2023-04-03T08:14:19;96291.25;;;7.59;62.95
25526;BME280;13424;48.424;11.258;2023-04-03T08:16:47;96285.44;;;6.95;65.32
25526;BME280;13424;48.424;11.258;2023-04-03T08:19:13;96293.25;;;7.23;64.95
25526;BME280;13424;48.424;11.258;2023-04-03T08:21:42;96293.47;;;7.48;63.22
25526;BME280;13424;48.424;11.258;2023-04-03T08:24:08;96290.66;;;7.83;62.70
25526;BME280;13424;48.424;11.258;2023-04-03T08:26:34;96291.22;;;7.65;64.18
25526;BME280;13424;48.424;11.258;2023-04-03T08:29:00;96300.41;;;8.09;63.40
25526;BME280;13424;48.424;11.258;2023-04-03T08:31:26;96292.44;;;7.89;60.97
25526;BME280;13424;48.424;11.258;2023-04-03T08:33:53;96301.81;;;7.25;63.59
25526;BME280;13424;48.424;11.258;2023-04-03T08:40:26;96294.09;;;7.70;63.59
25526;BME280;13424;48.424;11.258;2023-04-03T08:43:16;96294.91;;;7.31;63.58
25526;BME280;13424;48.424;11.258;2023-04-03T08:45:55;96293.06;;;7.65;62.84
25526;BME280;13424;48.424;11.258;2023-04-03T08:48:36;96295.72;;;8.11;61.57
25526;BME280;13424;48.424;11.258;2023-04-03T08:51:13;96296.06;;;7.09;65.59
25526;BME280;13424;48.424;11.258;2023-04-03T08:54:03;96294.06;;;7.24;64.24
25526;BME280;13424;48.424;11.258;2023-04-03T08:56:31;96299.78;;;7.21;62.87
25526;BME280;13424;48.424;11.258;2023-04-03T08:59:04;96302.25;;;8.22;61.69
25526;BME280;13424;48.424;11.258;2023-04-03T09:01:36;96300.56;;;8.47;61.39
25526;BME280;13424;48.424;11.258;2023-04-03T09:04:09;96299.00;;;8.06;62.21
25526;BME280;13424;48.424;11.258;2023-04-03T09:06:36;96306.03;;;8.65;59.29
25526;BME280;13424;48.424;11.258;2023-04-03T09:09:33;96304.59;;;8.70;60.62
25526;BME280;13424;48.424;11.258;2023-04-03T09:12:25;96299.41;;;7.97;62.12
25526;BME280;13424;48.424;11.258;2023-04-03T09:15:18;96305.66;;;8.62;59.88
25526;BME280;13424;48.424;11.258;2023-04-03T09:21:51;96300.63;;;8.14;59.89
25526;BME280;13424;48.424;11.258;2023-04-03T09:24:17;96300.19;;;8.30;58.95
25526;BME280;13424;48.424;11.258;2023-04-03T09:27:03;96302.25;;;7.36;61.65
25526;BME280;13424;48.424;11.258;2023-04-03T09:29:29;96309.47;;;8.79;58.98
25526;BME280;13424;48.424;11.258;2023-04-03T09:31:59;96305.94;;;7.81;62.27
25526;BME280;13424;48.424;11.258;2023-04-03T09:36:58;96303.72;;;7.84;60.54
25526;BME280;13424;48.424;11.258;2023-04-03T09:39:28;96303.09;;;7.76;59.72
25526;BME280;13424;48.424;11.258;2023-04-03T09:42:19;96301.69;;;7.67;60.46
25526;BME280;13424;48.424;11.258;2023-04-03T09:45:00;96292.88;;;7.46;60.50
25526;BME280;13424;48.424;11.258;2023-04-03T09:47:36;96302.44;;;7.21;61.75
25526;BME280;13424;48.424;11.258;2023-04-03T09:52:39;96303.41;;;7.00;62.30
25526;BME280;13424;48.424;11.258;2023-04-03T09:55:10;96305.47;;;7.11;62.98
25526;BME280;13424;48.424;11.258;2023-04-03T09:57:38;96307.81;;;6.73;64.57
25526;BME280;13424;48.424;11.258;2023-04-03T10:00:10;96306.50;;;7.23;61.55
25526;BME280;13424;48.424;11.258;2023-04-03T10:02:44;96303.41;;;7.07;62.55
25526;BME280;13424;48.424;11.258;2023-04-03T10:05:44;96298.38;;;7.58;59.58
25526;BME280;13424;48.424;11.258;2023-04-03T10:10:47;96298.50;;;6.97;61.30
25526;BME280;13424;48.424;11.258;2023-04-03T10:13:17;96294.84;;;7.18;60.92
25526;BME280;13424;48.424;11.258;2023-04-03T10:16:09;96299.88;;;6.86;61.66
25526;BME280;13424;48.424;11.258;2023-04-03T10:18:48;96288.28;;;7.00;60.63
25526;BME280;13424;48.424;11.258;2023-04-03T10:24:25;96291.63;;;7.22;60.07
25526;BME280;13424;48.424;11.258;2023-04-03T10:27:16;96299.22;;;7.98;58.02
25526;BME280;13424;48.424;11.258;2023-04-03T10:30:26;96295.31;;;8.14;57.56
25526;BME280;13424;48.424;11.258;2023-04-03T10:36:01;96295.47;;;8.19;57.72
25526;BME280;13424;48.424;11.258;2023-04-03T10:38:43;96296.22;;;8.59;56.56
25526;BME280;13424;48.424;11.258;2023-04-03T10:49:42;96291.19;;;8.18;56.23
25526;BME280;13424;48.424;11.258;2023-04-03T10:58:57;96287.44;;;8.52;56.03
25526;BME280;13424;48.424;11.258;2023-04-03T11:01:29;96277.31;;;8.09;57.94
25526;BME280;13424;48.424;11.258;2023-04-03T11:03:58;96278.28;;;8.48;56.28
25526;BME280;13424;48.424;11.258;2023-04-03T11:06:33;96289.84;;;9.18;53.36
25526;BME280;13424;48.424;11.258;2023-04-03T11:11:42;96278.88;;;9.90;53.15
25526;BME280;13424;48.424;11.258;2023-04-03T11:14:29;96289.31;;;9.35;52.24
25526;BME280;13424;48.424;11.258;2023-04-03T11:22:57;96267.78;;;9.05;53.03
25526;BME280;13424;48.424;11.258;2023-04-03T11:25:25;96268.97;;;7.99;57.52
25526;BME280;13424;48.424;11.258;2023-04-03T11:30:50;96273.06;;;8.73;55.04
25526;BME280;13424;48.424;11.258;2023-04-03T11:33:45;96280.97;;;8.35;54.30
25526;BME280;13424;48.424;11.258;2023-04-03T11:38:44;96270.97;;;8.82;54.64
25526;BME280;13424;48.424;11.258;2023-04-03T11:41:12;96271.72;;;9.34;52.86
25526;BME280;13424;48.424;11.258;2023-04-03T11:44:04;96266.72;;;8.67;54.02
25526;BME280;13424;48.424;11.258;2023-04-03T11:46:57;96269.13;;;9.52;51.50
25526;BME280;13424;48.424;11.258;2023-04-03T11:49:59;96261.38;;;9.94;53.02
25526;BME280;13424;48.424;11.258;2023-04-03T12:00:52;96252.28;;;10.63;49.95
25526;BME280;13424;48.424;11.258;2023-04-03T12:05:52;96249.47;;;10.40;50.23
25526;BME280;13424;48.424;11.258;2023-04-03T12:41:31;96222.34;;;11.21;47.15
25526;BME280;13424;48.424;11.258;2023-04-03T12:44:30;96224.72;;;11.53;46.60
25526;BME280;13424;48.424;11.258;2023-04-03T12:47:15;96227.81;;;10.66;45.69
25526;BME280;13424;48.424;11.258;2023-04-03T12:49:43;96224.88;;;9.76;47.07
25526;BME280;13424;48.424;11.258;2023-04-03T12:52:45;96219.66;;;9.38;46.86
25526;BME280;13424;48.424;11.258;2023-04-03T12:55:18;96219.31;;;9.03;49.46
25526;BME280;13424;48.424;11.258;2023-04-03T12:57:44;96219.16;;;9.47;47.57
25526;BME280;13424;48.424;11.258;2023-04-03T13:00:31;96223.94;;;9.39;47.72
25526;BME280;13424;48.424;11.258;2023-04-03T13:03:00;96221.09;;;9.09;46.64
25526;BME280;13424;48.424;11.258;2023-04-03T13:05:26;96231.94;;;9.07;47.14
25526;BME280;13424;48.424;11.258;2023-04-03T13:08:03;96232.28;;;9.49;46.37
25526;BME280;13424;48.424;11.258;2023-04-03T13:10:30;96229.16;;;9.52;46.48
25526;BME280;13424;48.424;11.258;2023-04-03T13:13:07;96220.25;;;9.08;44.95
25526;BME280;13424;48.424;11.258;2023-04-03T13:15:47;96233.53;;;9.15;45.65
25526;BME280;13424;48.424;11.258;2023-04-03T13:18:33;96226.81;;;9.37;45.49
25526;BME280;13424;48.424;11.258;2023-04-03T13:21:16;96239.56;;;9.60;44.12
25526;BME280;13424;48.424;11.258;2023-04-03T13:23:48;96228.53;;;9.57;43.78
25526;BME280;13424;48.424;11.258;2023-04-03T13:26:17;96215.63;;;9.78;45.14
25526;BME280;13424;48.424;11.258;2023-04-03T13:28:45;96222.91;;;9.90;46.89
25526;BME280;13424;48.424;11.258;2023-04-03T13:31:20;96218.47;;;9.59;45.26
25526;BME280;13424;48.424;11.258;2023-04-03T13:34:16;96212.88;;;10.47;44.96
25526;BME280;13424;48.424;11.258;2023-04-03T13:41:49;96207.56;;;9.42;44.98
25526;BME280;13424;48.424;11.258;2023-04-03T13:46:55;96208.41;;;10.04;44.59
25526;BME280;13424;48.424;11.258;2023-04-03T13:49:39;96196.22;;;9.71;43.60
25526;BME280;13424;48.424;11.258;2023-04-03T13:52:47;96199.97;;;9.39;43.17
25526;BME280;13424;48.424;11.258;2023-04-03T13:55:26;96202.22;;;9.42;43.74
25526;BME280;13424;48.424;11.258;2023-04-03T14:03:23;96200.97;;;8.88;43.30
25526;BME280;13424;48.424;11.258;2023-04-03T14:05:50;96193.31;;;8.98;43.75
25526;BME280;13424;48.424;11.258;2023-04-03T14:08:17;96201.47;;;8.13;43.05
25526;BME280;13424;48.424;11.258;2023-04-03T14:10:43;96204.69;;;8.80;43.78
25526;BME280;13424;48.424;11.258;2023-04-03T14:13:13;96187.97;;;9.30;43.42
25526;BME280;13424;48.424;11.258;2023-04-03T14:15:40;96192.00;;;9.64;41.91
25526;BME280;13424;48.424;11.258;2023-04-03T14:18:06;96184.72;;;10.14;42.08
25526;BME280;13424;48.424;11.258;2023-04-03T14:20:32;96185.88;;;9.82;42.09
25526;BME280;13424;48.424;11.258;2023-04-03T14:22:57;96192.31;;;10.96;41.85
25526;BME280;13424;48.424;11.258;2023-04-03T14:25:23;96179.94;;;11.13;40.28
25526;BME280;13424;48.424;11.258;2023-04-03T14:27:54;96180.91;;;10.88;39.87
25526;BME280;13424;48.424;11.258;2023-04-03T14:30:30;96180.09;;;9.85;40.32
25526;BME280;13424;48.424;11.258;2023-04-03T14:32:57;96181.06;;;9.72;41.01
25526;BME280;13424;48.424;11.258;2023-04-03T14:35:24;96185.91;;;9.32;41.27
25526;BME280;13424;48.424;11.258;2023-04-03T14:37:51;96186.34;;;9.29;42.01
25526;BME280;13424;48.424;11.258;2023-04-03T14:40:23;96190.56;;;9.11;41.33
25526;BME280;13424;48.424;11.258;2023-04-03T14:42:50;96185.25;;;9.61;39.70
25526;BME280;13424;48.424;11.258;2023-04-03T14:45:16;96179.28;;;9.84;40.27
25526;BME280;13424;48.424;11.258;2023-04-03T14:47:50;96182.41;;;10.18;41.02
25526;BME280;13424;48.424;11.258;2023-04-03T14:50:23;96174.75;;;10.58;40.28
25526;BME280;13424;48.424;11.258;2023-04-03T14:52:52;96182.28;;;11.09;40.08
25526;BME280;13424;48.424;11.258;2023-04-03T14:55:29;96180.75;;;10.23;39.29
25526;BME280;13424;48.424;11.258;2023-04-03T14:57:55;96178.84;;;9.87;38.28
25526;BME280;13424;48.424;11.258;2023-04-03T15:00:30;96189.56;;;9.37;39.32
25526;BME280;13424;48.424;11.258;2023-04-03T15:02:56;96181.22;;;9.02;39.95
25526;BME280;13424;48.424;11.258;2023-04-03T15:05:21;96192.47;;;9.29;41.00
25526;BME280;13424;48.424;11.258;2023-04-03T15:07:53;96190.72;;;9.48;39.39
25526;BME280;13424;48.424;11.258;2023-04-03T15:10:25;96184.81;;;9.39;41.16
25526;BME280;13424;48.424;11.258;2023-04-03T15:12:52;96177.91;;;10.00;40.46
25526;BME280;13424;48.424;11.258;2023-04-03T15:15:55;96174.22;;;9.58;40.48
25526;BME280;13424;48.424;11.258;2023-04-03T15:18:27;96182.38;;;10.43;39.68
25526;BME280;13424;48.424;11.258;2023-04-03T15:21:26;96184.75;;;9.71;40.03
25526;BME280;13424;48.424;11.258;2023-04-03T15:23:52;96193.03;;;9.38;40.99
25526;BME280;13424;48.424;11.258;2023-04-03T15:26:18;96185.84;;;8.44;42.23